Time;durP1;ratioP1;P1;durP2;ratioP2;P2;SDS_P1;SDS_P2;PMS_P1;PMS_P2;Temp;Humidity;BMP_temperature;BMP_pressure;BME280_temperature;BME280_humidity;BME280_pressure;Samples;Min_cycle;Max_cycle;Signal;HPM_P1;HPM_P2
2023/10/29 00:01:59;;;;;;;31.17;19.75;;;;;;;8.13;100.00;99426.09;1824639;78;25670;-51
2023/10/29 00:04:25;;;;;;;34.75;20.20;;;;;;;8.14;100.00;99429.58;1824643;78;25940;-52
2023/10/29 00:06:51;;;;;;;44.05;20.35;;;;;;;8.14;100.00;99429.05;1825441;77;27467;-55
2023/10/29 00:09:18;;;;;;;34.60;20.05;;;;;;;8.13;100.00;99432.05;1825500;78;25582;-55
2023/10/29 00:11:44;;;;;;;31.25;19.62;;;;;;;8.11;100.00;99427.53;1825592;78;25386;-55
2023/10/29 00:14:11;;;;;;;30.02;18.95;;;;;;;8.11;100.00;99428.32;1805059;78;25460;-53
2023/10/29 00:16:39;;;;;;;30.50;18.62;;;;;;;8.11;100.00;99428.87;1825620;78;25607;-52
2023/10/29 00:19:06;;;;;;;30.15;17.30;;;;;;;8.11;100.00;99435.05;1825562;78;27407;-53
2023/10/29 00:21:34;;;;;;;28.12;18.42;;;;;;;8.09;100.00;99434.58;1825525;78;25600;-52
2023/10/29 00:24:00;;;;;;;32.53;18.73;;;;;;;8.09;100.00;99435.92;1825427;78;25453;-53
2023/10/29 00:26:28;;;;;;;30.37;18.82;;;;;;;8.09;100.00;99431.07;1825547;78;25479;-54
2023/10/29 00:28:54;;;;;;;29.25;18.05;;;;;;;8.09;100.00;99432.41;1825548;78;25589;-53
2023/10/29 00:31:20;;;;;;;26.80;17.07;;;;;;;8.07;100.00;99431.41;1825622;78;29674;-53
2023/10/29 00:33:46;;;;;;;28.07;17.23;;;;;;;8.07;100.00;99430.59;1825578;78;25397;-52
2023/10/29 00:36:12;;;;;;;31.93;18.25;;;;;;;8.06;100.00;99429.81;1825517;78;25434;-53
2023/10/29 00:38:39;;;;;;;27.25;17.42;;;;;;;8.04;100.00;99431.47;1828122;78;27708;-52
2023/10/29 00:41:05;;;;;;;27.40;17.60;;;;;;;8.03;100.00;99429.87;1831695;78;25438;-54
2023/10/29 00:43:40;;;;;;;29.40;18.45;;;;;;;8.04;100.00;99422.05;1831672;77;27485;-53
2023/10/29 00:46:07;;;;;;;30.82;17.55;;;;;;;8.06;100.00;99430.37;1815387;78;25623;-51
2023/10/29 00:48:34;;;;;;;29.65;17.30;;;;;;;8.06;100.00;99423.64;1831614;77;25582;-51
2023/10/29 00:51:02;;;;;;;27.00;17.10;;;;;;;8.06;100.00;99420.39;1831626;78;26037;-53
2023/10/29 00:53:29;;;;;;;27.98;17.45;;;;;;;8.07;100.00;99419.82;1815594;78;25605;-52
2023/10/29 00:55:58;;;;;;;29.87;17.98;;;;;;;8.06;100.00;99423.08;1831639;77;27488;-53
2023/10/29 00:58:25;;;;;;;26.35;17.25;;;;;;;8.05;100.00;99421.48;1831658;77;25888;-55
2023/10/29 01:00:52;;;;;;;27.02;18.23;;;;;;;8.05;100.00;99430.91;1831658;77;25556;-53
2023/10/29 01:03:18;;;;;;;26.55;17.07;;;;;;;8.05;100.00;99424.17;1831566;78;27638;-53
2023/10/29 01:05:46;;;;;;;29.85;18.30;;;;;;;8.05;100.00;99428.21;1831675;77;25594;-54
2023/10/29 01:08:13;;;;;;;28.92;18.10;;;;;;;8.04;100.00;99427.43;1831601;77;29635;-52
2023/10/29 01:10:39;;;;;;;28.70;18.77;;;;;;;8.04;100.00;99428.77;1831548;78;25695;-54
2023/10/29 01:13:05;;;;;;;34.85;18.20;;;;;;;8.03;100.00;99431.22;1815479;78;25544;-52
2023/10/29 01:15:33;;;;;;;28.15;18.10;;;;;;;8.02;100.00;99432.34;1831604;78;25591;-52
2023/10/29 01:17:59;;;;;;;27.90;17.48;;;;;;;8.02;100.00;99437.73;1831636;78;25378;-51
2023/10/29 01:20:26;;;;;;;28.02;17.82;;;;;;;8.04;100.00;99442.24;1831604;78;27472;-52
2023/10/29 01:22:53;;;;;;;31.23;17.32;;;;;;;8.04;100.00;99438.77;1831554;77;25755;-54
2023/10/29 01:25:19;;;;;;;26.50;16.82;;;;;;;8.05;100.00;99440.33;1831633;77;25547;-52
2023/10/29 01:27:45;;;;;;;28.73;17.40;;;;;;;8.04;100.00;99439.55;1815553;78;25548;-55
2023/10/29 01:30:13;;;;;;;29.85;18.60;;;;;;;8.05;100.00;99432.25;1831666;77;25457;-52
2023/10/29 01:32:39;;;;;;;29.00;17.50;;;;;;;8.04;100.00;99436.86;1831628;78;26693;-55
2023/10/29 01:35:07;;;;;;;29.65;17.65;;;;;;;8.07;100.00;99440.02;1831571;78;25357;-52
2023/10/29 01:37:34;;;;;;;30.43;18.40;;;;;;;8.07;100.00;99448.10;1831576;78;25528;-53
2023/10/29 01:40:00;;;;;;;29.67;18.25;;;;;;;8.05;100.00;99447.06;1826026;78;25546;-53
2023/10/29 01:42:26;;;;;;;30.77;18.02;;;;;;;8.05;100.00;99441.68;1825564;78;25446;-52
2023/10/29 01:44:52;;;;;;;32.55;18.50;;;;;;;8.04;100.00;99437.41;1825524;78;27457;-55
2023/10/29 01:47:19;;;;;;;31.48;17.62;;;;;;;8.03;100.00;99444.68;1804882;78;25661;-52
2023/10/29 01:49:45;;;;;;;32.35;19.02;;;;;;;8.04;100.00;99444.16;1825503;78;25542;-54
2023/10/29 01:52:11;;;;;;;33.25;19.35;;;;;;;8.04;100.00;99445.50;1825483;78;25552;-56
2023/10/29 01:54:37;;;;;;;31.07;18.57;;;;;;;8.04;100.00;99448.97;1805131;78;25475;-52
2023/10/29 01:57:04;;;;;;;30.57;18.73;;;;;;;8.04;100.00;99453.02;1825524;78;28050;-54
2023/10/29 01:59:32;;;;;;;30.85;18.65;;;;;;;8.03;100.00;99450.63;1825417;78;25967;-55
2023/10/29 02:01:58;;;;;;;31.10;18.05;;;;;;;8.04;100.00;99450.88;1825573;78;25457;-55
2023/10/29 02:04:26;;;;;;;35.50;18.75;;;;;;;8.06;100.00;99451.92;1825535;78;26076;-53
2023/10/29 02:06:54;;;;;;;32.80;18.35;;;;;;;8.07;100.00;99454.30;1825565;78;25631;-52
2023/10/29 02:09:22;;;;;;;33.48;18.82;;;;;;;8.07;100.00;99448.92;1825535;78;27486;-52
2023/10/29 02:11:48;;;;;;;31.85;19.32;;;;;;;8.09;100.00;99451.27;1825412;78;25605;-55
2023/10/29 02:14:14;;;;;;;33.80;19.00;;;;;;;8.09;100.00;99457.47;1825460;78;25602;-53
2023/10/29 02:16:41;;;;;;;32.20;19.75;;;;;;;8.10;100.00;99459.05;1825495;77;25580;-53
2023/10/29 02:19:07;;;;;;;33.30;19.25;;;;;;;8.10;100.00;99460.95;1825457;77;25557;-53
2023/10/29 02:21:35;;;;;;;36.30;20.10;;;;;;;8.13;100.00;99476.49;1825431;78;27469;-53
2023/10/29 02:24:01;;;;;;;30.90;17.67;;;;;;;8.12;100.00;99468.97;1825426;78;25627;-53
2023/10/29 02:26:28;;;;;;;34.10;17.92;;;;;;;8.12;100.00;99476.24;1825499;78;25383;-52
2023/10/29 02:28:54;;;;;;;31.48;18.15;;;;;;;8.12;100.00;99475.71;1825418;78;25537;-52
2023/10/29 02:31:21;;;;;;;33.20;19.27;;;;;;;8.13;100.00;99479.19;1825533;78;25169;-53
2023/10/29 02:33:48;;;;;;;31.90;17.80;;;;;;;8.13;100.00;99473.23;1825464;78;27499;-53
2023/10/29 02:36:15;;;;;;;29.95;17.57;;;;;;;8.14;100.00;99476.19;1825432;78;25582;-55
2023/10/29 02:38:43;;;;;;;31.95;16.48;;;;;;;8.14;100.00;99474.84;1825386;78;25551;-54
2023/10/29 02:41:10;;;;;;;32.13;18.60;;;;;;;8.14;100.00;99473.48;1804826;78;25564;-55
2023/10/29 02:43:40;;;;;;;32.30;17.12;;;;;;;8.14;100.00;99478.88;1825576;78;25688;-53
2023/10/29 02:46:06;;;;;;;30.50;17.25;;;;;;;8.13;100.00;99477.84;1825547;78;27082;-54
2023/10/29 02:48:32;;;;;;;34.45;17.42;;;;;;;8.11;100.00;99478.15;1825448;78;25537;-53
2023/10/29 02:50:59;;;;;;;34.90;17.87;;;;;;;8.10;100.00;99473.86;1825498;78;25397;-56
2023/10/29 02:53:25;;;;;;;31.48;17.90;;;;;;;8.10;100.00;99492.71;1825455;78;25536;-53
2023/10/29 02:55:51;;;;;;;36.23;18.70;;;;;;;8.09;100.00;99489.80;1825539;78;25619;-53
2023/10/29 02:58:17;;;;;;;33.02;18.48;;;;;;;8.08;100.00;99490.89;1804807;78;28147;-51
2023/10/29 03:00:44;;;;;;;35.00;19.42;;;;;;;8.07;100.00;99483.93;1825383;78;25428;-55
2023/10/29 03:03:10;;;;;;;31.75;19.17;;;;;;;8.09;100.00;99493.02;1825518;77;25602;-56
2023/10/29 03:05:37;;;;;;;31.33;17.40;;;;;;;8.09;100.00;99488.45;1825383;78;25516;-53
2023/10/29 03:08:06;;;;;;;30.70;17.95;;;;;;;8.09;100.00;99480.90;1825536;78;25453;-53
2023/10/29 03:10:32;;;;;;;33.02;17.80;;;;;;;8.09;100.00;99488.45;1825518;78;27557;-53
2023/10/29 03:12:59;;;;;;;30.25;17.73;;;;;;;8.10;100.00;99498.66;1825369;78;27320;-53
2023/10/29 03:15:26;;;;;;;36.75;18.70;;;;;;;8.10;100.00;99500.01;1825477;78;25549;-53
2023/10/29 03:17:53;;;;;;;33.48;17.98;;;;;;;8.09;100.00;99485.75;1825378;78;25475;-55
2023/10/29 03:20:20;;;;;;;32.88;18.05;;;;;;;8.08;100.00;99487.41;1825533;78;25470;-56
2023/10/29 03:22:47;;;;;;;30.60;17.60;;;;;;;8.08;100.00;99492.80;1825500;78;27537;-55
2023/10/29 03:25:13;;;;;;;34.30;17.87;;;;;;;8.07;100.00;99493.89;1825321;78;25410;-54
2023/10/29 03:27:39;;;;;;;39.18;18.30;;;;;;;8.06;100.00;99495.02;1825509;78;25386;-52
2023/10/29 03:30:08;;;;;;;42.40;19.70;;;;;;;8.05;100.00;99490.16;1825404;78;25542;-52
2023/10/29 03:32:34;;;;;;;35.28;18.27;;;;;;;8.04;100.00;99495.32;1805071;78;25632;-52
2023/10/29 03:35:01;;;;;;;38.25;19.30;;;;;;;8.03;100.00;99493.16;1825552;78;27451;-56
2023/10/29 03:37:27;;;;;;;37.50;18.10;;;;;;;8.05;100.00;99491.51;1825482;78;25692;-55
2023/10/29 03:39:53;;;;;;;36.38;18.60;;;;;;;8.06;100.00;99485.59;1828820;76;25364;-53
2023/10/29 03:42:19;;;;;;;39.33;17.82;;;;;;;8.06;100.00;99486.94;1831660;77;25591;-53
2023/10/29 03:44:46;;;;;;;34.35;17.95;;;;;;;8.04;100.00;99485.34;1831545;78;25593;-54
2023/10/29 03:47:12;;;;;;;41.48;19.62;;;;;;;8.03;100.00;99474.87;1831568;77;27448;-53
2023/10/29 03:49:42;;;;;;;33.78;19.55;;;;;;;8.02;100.00;99474.09;1831480;77;25581;-54
2023/10/29 03:52:09;;;;;;;37.83;18.98;;;;;;;8.04;100.00;99473.78;1831613;78;25175;-56
2023/10/29 03:54:35;;;;;;;43.90;17.52;;;;;;;8.03;100.00;99466.79;1831498;78;25488;-53
2023/10/29 03:57:02;;;;;;;37.55;19.80;;;;;;;8.04;100.00;99470.52;1831547;78;25510;-56
2023/10/29 03:59:28;;;;;;;40.52;19.60;;;;;;;8.06;100.00;99473.47;1815291;78;27693;-54
2023/10/29 04:01:54;;;;;;;36.83;19.60;;;;;;;8.07;100.00;99476.38;1831434;77;25593;-53
2023/10/29 04:04:21;;;;;;;38.90;19.50;;;;;;;8.06;100.00;99468.86;1831532;77;25207;-57
2023/10/29 04:06:47;;;;;;;35.95;19.45;;;;;;;8.07;100.00;99473.16;1831524;77;25678;-52
2023/10/29 04:09:13;;;;;;;39.95;19.87;;;;;;;8.09;100.00;99479.55;1831583;77;25581;-53
2023/10/29 04:11:39;;;;;;;34.88;19.20;;;;;;;8.09;100.00;99489.80;1831471;78;27515;-53
2023/10/29 04:14:06;;;;;;;39.05;20.32;;;;;;;8.09;100.00;99495.72;1815347;78;25472;-55
2023/10/29 04:16:32;;;;;;;40.98;20.88;;;;;;;8.09;100.00;99484.94;1831491;78;25406;-54
2023/10/29 04:18:58;;;;;;;40.58;20.77;;;;;;;8.09;100.00;99476.86;1831457;77;25604;-54
2023/10/29 04:21:24;;;;;;;36.75;20.08;;;;;;;8.10;100.00;99466.34;1831499;78;25357;-52
2023/10/29 04:23:50;;;;;;;43.68;20.75;;;;;;;8.11;100.00;99465.25;1815256;78;27642;-54
2023/10/29 04:26:16;;;;;;;42.03;20.00;;;;;;;8.12;100.00;99467.63;1831367;78;25503;-52
2023/10/29 04:28:43;;;;;;;40.67;21.25;;;;;;;8.13;100.00;99471.89;1831471;78;25610;-52
2023/10/29 04:31:09;;;;;;;37.00;20.00;;;;;;;8.14;100.00;99472.67;1831492;78;26089;-54
2023/10/29 04:33:37;;;;;;;38.13;19.10;;;;;;;8.15;100.00;99470.23;1831573;77;25437;-53
2023/10/29 04:36:06;;;;;;;41.18;20.32;;;;;;;8.16;100.00;99459.15;1831634;77;27470;-53
2023/10/29 04:38:35;;;;;;;40.50;19.95;;;;;;;8.17;100.00;99459.41;1831383;78;25426;-53
2023/10/29 04:41:01;;;;;;;44.83;20.55;;;;;;;8.18;100.00;99466.92;1831300;77;25411;-53
2023/10/29 04:43:27;;;;;;;43.60;20.50;;;;;;;8.17;100.00;99463.44;1831528;78;25646;-54
2023/10/29 04:45:54;;;;;;;46.70;21.30;;;;;;;8.20;100.00;99462.01;1831654;78;25354;-52
2023/10/29 04:48:20;;;;;;;45.58;19.75;;;;;;;8.19;100.00;99458.53;1831636;78;27507;-52
2023/10/29 04:50:46;;;;;;;44.55;21.65;;;;;;;8.20;100.00;99469.53;1831580;78;25503;-53
2023/10/29 04:53:12;;;;;;;43.58;21.82;;;;;;;8.20;100.00;99470.09;1831632;77;25576;-55
2023/10/29 04:55:38;;;;;;;45.08;22.22;;;;;;;8.20;100.00;99469.53;1831582;78;25578;-54
2023/10/29 04:58:04;;;;;;;41.02;20.92;;;;;;;8.22;100.00;99478.12;1831616;77;25427;-51
2023/10/29 05:00:30;;;;;;;48.42;21.82;;;;;;;8.25;100.00;99485.33;1831606;78;27513;-53
2023/10/29 05:02:56;;;;;;;44.33;22.17;;;;;;;8.26;100.00;99493.09;1831567;78;25404;-54
2023/10/29 05:05:23;;;;;;;49.67;22.17;;;;;;;8.28;100.00;99492.79;1831658;78;25567;-54
2023/10/29 05:07:50;;;;;;;45.88;22.58;;;;;;;8.29;100.00;99492.48;1796426;78;25613;-54
2023/10/29 05:10:16;;;;;;;44.83;22.15;;;;;;;8.32;100.00;99491.05;1831683;78;25428;-54
2023/10/29 05:12:42;;;;;;;46.25;22.13;;;;;;;8.33;100.00;99492.08;1831641;77;27482;-54
2023/10/29 05:15:12;;;;;;;47.90;22.30;;;;;;;8.36;100.00;99492.00;1831525;77;27298;-53
2023/10/29 05:17:37;;;;;;;43.70;21.50;;;;;;;8.37;100.00;99490.34;1831659;77;32858;-53
2023/10/29 05:20:09;;;;;;;47.23;23.02;;;;;;;8.39;100.00;99494.88;1831545;77;25549;-52
2023/10/29 05:22:36;;;;;;;45.52;22.75;;;;;;;8.40;100.00;99496.45;1812255;78;25387;-53
2023/10/29 05:25:02;;;;;;;47.00;21.85;;;;;;;8.41;100.00;99494.55;1831638;78;27555;-54
2023/10/29 05:27:29;;;;;;;49.60;22.05;;;;;;;8.43;100.00;99499.12;1815320;78;25717;-53
2023/10/29 05:29:55;;;;;;;43.45;21.70;;;;;;;8.46;100.00;99486.91;1831644;78;25565;-52
2023/10/29 05:32:21;;;;;;;44.83;21.48;;;;;;;8.48;100.00;99492.77;1815353;78;25463;-51
2023/10/29 05:34:47;;;;;;;47.25;23.38;;;;;;;8.49;100.00;99487.62;1831656;78;25489;-55
2023/10/29 05:37:14;;;;;;;44.58;22.60;;;;;;;8.50;100.00;99489.23;1831593;78;27485;-53
2023/10/29 05:39:40;;;;;;;49.40;23.30;;;;;;;8.52;100.00;99499.92;1830039;77;25647;-52
2023/10/29 05:42:06;;;;;;;44.55;23.20;;;;;;;8.53;100.00;99502.05;1825487;78;25556;-53
2023/10/29 05:44:32;;;;;;;47.05;23.47;;;;;;;8.54;100.00;99500.39;1825464;78;26100;-53
2023/10/29 05:46:58;;;;;;;42.62;22.52;;;;;;;8.56;100.00;99502.77;1825540;78;25549;-54
2023/10/29 05:49:25;;;;;;;49.88;22.90;;;;;;;8.56;100.00;99506.81;1825513;78;27414;-53
2023/10/29 05:51:51;;;;;;;47.20;23.25;;;;;;;8.57;100.00;99515.94;1825446;78;25830;-52
2023/10/29 05:54:18;;;;;;;45.88;21.85;;;;;;;8.58;100.00;99523.47;1804872;78;25415;-54
2023/10/29 05:56:46;;;;;;;55.23;23.12;;;;;;;8.60;100.00;99532.84;1825564;78;25443;-53
2023/10/29 05:59:13;;;;;;;39.45;19.62;;;;;;;8.62;100.00;99534.44;1825487;78;25621;-53
2023/10/29 06:01:39;;;;;;;53.60;22.98;;;;;;;8.63;100.00;99529.27;1825470;78;27520;-53
2023/10/29 06:04:06;;;;;;;58.10;24.50;;;;;;;8.66;100.00;99541.56;1825371;77;25536;-55
2023/10/29 06:06:32;;;;;;;54.23;25.17;;;;;;;8.68;100.00;99543.95;1825438;78;25412;-54
2023/10/29 06:08:58;;;;;;;57.48;23.75;;;;;;;8.69;100.00;99542.85;1825455;78;25658;-55
2023/10/29 06:11:25;;;;;;;52.38;24.05;;;;;;;8.71;100.00;99548.16;1825540;78;25612;-54
2023/10/29 06:13:53;;;;;;;55.03;24.30;;;;;;;8.76;100.00;99552.61;1825481;78;26582;-54
2023/10/29 06:16:19;;;;;;;51.25;22.93;;;;;;;8.75;100.00;99553.17;1825396;78;25371;-56
2023/10/29 06:18:45;;;;;;;50.70;24.18;;;;;;;8.80;100.00;99563.00;1825459;78;25442;-56
2023/10/29 06:21:11;;;;;;;49.05;23.87;;;;;;;8.82;100.00;99562.16;1825452;78;25483;-54
2023/10/29 06:23:37;;;;;;;58.05;25.08;;;;;;;8.82;100.00;99563.50;1825462;78;25368;-55
2023/10/29 06:26:08;;;;;;;49.18;24.37;;;;;;;8.85;100.00;99564.77;1804912;78;27705;-57
2023/10/29 06:28:35;;;;;;;56.25;25.12;;;;;;;8.87;100.00;99563.35;1825424;78;25547;-53
2023/10/29 06:31:01;;;;;;;53.75;25.82;;;;;;;8.89;100.00;99566.52;1825482;78;25549;-55
2023/10/29 06:33:28;;;;;;;56.50;26.00;;;;;;;8.93;100.00;99561.29;1825517;78;25761;-52
2023/10/29 06:35:57;;;;;;;58.33;27.40;;;;;;;8.95;100.00;99572.55;1825513;78;25565;-53
2023/10/29 06:38:22;;;;;;;59.05;28.12;;;;;;;8.96;100.00;99577.63;1825300;78;28260;-55
2023/10/29 06:40:48;;;;;;;57.83;27.80;;;;;;;8.97;100.00;99573.02;1828683;77;25594;-53
2023/10/29 06:43:15;;;;;;;60.60;26.70;;;;;;;9.02;100.00;99574.78;1831550;78;25363;-53
2023/10/29 06:45:41;;;;;;;60.83;31.35;;;;;;;9.05;100.00;99571.45;1831511;77;25441;-53
2023/10/29 06:48:07;;;;;;;61.88;30.92;;;;;;;9.07;100.00;99573.28;1831549;77;25526;-53
2023/10/29 06:50:35;;;;;;;73.65;32.23;;;;;;;9.12;100.00;99581.22;1831541;78;27139;-54
2023/10/29 06:53:03;;;;;;;69.58;30.90;;;;;;;9.15;100.00;99575.98;1831493;77;25609;-53
2023/10/29 06:55:29;;;;;;;63.28;30.35;;;;;;;9.19;100.00;99574.00;1831545;77;25379;-52
2023/10/29 06:57:55;;;;;;;61.50;28.60;;;;;;;9.22;100.00;99573.38;1815274;78;25450;-50
2023/10/29 07:00:21;;;;;;;57.58;29.30;;;;;;;9.24;100.00;99569.23;1831533;77;25623;-53
2023/10/29 07:02:48;;;;;;;68.12;33.13;;;;;;;9.30;100.00;99567.19;1831525;77;29697;-55
2023/10/29 07:05:15;;;;;;;79.07;43.02;;;;;;;9.32;100.00;99567.09;1831470;78;25940;-54
2023/10/29 07:07:42;;;;;;;75.25;38.00;;;;;;;9.39;100.00;99563.92;1831554;77;25438;-52
2023/10/29 07:10:10;;;;;;;69.62;33.98;;;;;;;9.45;100.00;99569.41;1831478;77;25612;-53
2023/10/29 07:12:36;;;;;;;56.53;29.67;;;;;;;9.51;100.00;99561.93;1831570;78;25378;-51
2023/10/29 07:15:05;;;;;;;59.27;30.68;;;;;;;9.57;100.00;99562.02;1831541;78;28062;-51
2023/10/29 07:17:31;;;;;;;57.58;26.70;;;;;;;9.62;100.00;99557.80;1831606;78;25370;-52
2023/10/29 07:19:57;;;;;;;52.10;27.42;;;;;;;9.68;100.00;99554.36;1815357;78;25410;-51
2023/10/29 07:22:24;;;;;;;53.23;28.15;;;;;;;9.73;100.00;99546.88;1831473;78;25449;-52
2023/10/29 07:24:50;;;;;;;50.52;25.70;;;;;;;9.80;100.00;99553.70;1831579;78;25627;-51
2023/10/29 07:27:17;;;;;;;50.80;25.52;;;;;;;9.89;100.00;99555.81;1831565;77;27527;-55
2023/10/29 07:29:43;;;;;;;49.70;25.60;;;;;;;9.97;100.00;99555.56;1831410;78;25584;-52
2023/10/29 07:32:10;;;;;;;45.00;23.77;;;;;;;10.01;100.00;99550.55;1831562;77;25561;-51
2023/10/29 07:34:36;;;;;;;42.17;23.02;;;;;;;10.04;100.00;99549.10;1831505;78;25427;-52
2023/10/29 07:37:02;;;;;;;41.53;24.07;;;;;;;10.17;100.00;99551.37;1831498;78;25413;-52
2023/10/29 07:39:28;;;;;;;47.25;23.67;;;;;;;10.29;100.00;99559.58;1831494;78;27956;-52
2023/10/29 07:41:54;;;;;;;38.28;21.60;;;;;;;10.37;100.00;99569.60;1812533;78;26055;-52
2023/10/29 07:44:26;;;;;;;34.35;20.45;;;;;;;10.44;100.00;99560.42;1812489;78;25613;-53
2023/10/29 07:46:52;;;;;;;36.77;19.95;;;;;;;10.54;100.00;99562.51;1828974;78;25527;-52
2023/10/29 07:49:18;;;;;;;35.10;20.02;;;;;;;10.54;100.00;99555.75;1829023;77;25565;-53
2023/10/29 07:51:44;;;;;;;30.35;18.75;;;;;;;10.61;100.00;99556.05;1828904;78;28141;-52
2023/10/29 07:54:11;;;;;;;28.90;17.80;;;;;;;10.73;100.00;99547.23;1828805;77;25415;-52
2023/10/29 07:56:39;;;;;;;30.82;17.65;;;;;;;10.81;100.00;99537.70;1828923;78;25605;-55
2023/10/29 07:59:05;;;;;;;28.75;15.60;;;;;;;10.96;100.00;99534.95;1828873;78;25559;-54
2023/10/29 08:01:31;;;;;;;21.73;15.13;;;;;;;11.05;100.00;99543.57;1828949;77;25532;-56
2023/10/29 08:03:57;;;;;;;22.93;15.05;;;;;;;11.03;100.00;99541.19;1828899;77;28047;-54
2023/10/29 08:06:23;;;;;;;21.80;14.07;;;;;;;11.01;100.00;99537.45;1828838;78;25581;-55
2023/10/29 08:08:50;;;;;;;25.55;16.32;;;;;;;11.09;100.00;99538.53;1828887;78;25367;-53
2023/10/29 08:11:19;;;;;;;24.05;14.95;;;;;;;11.27;100.00;99531.07;1828862;77;26117;-52
2023/10/29 08:13:46;;;;;;;20.30;14.35;;;;;;;11.61;100.00;99512.89;1829147;78;25412;-54
2023/10/29 08:16:13;;;;;;;21.10;13.75;;;;;;;11.97;100.00;99515.50;1828850;78;27571;-53
2023/10/29 08:18:41;;;;;;;19.12;12.37;;;;;;;12.05;100.00;99532.77;1828890;77;25465;-56
2023/10/29 08:21:08;;;;;;;20.92;12.78;;;;;;;12.08;100.00;99539.66;1829013;78;25361;-57
2023/10/29 08:23:34;;;;;;;22.75;13.13;;;;;;;12.12;100.00;99521.61;1828977;78;25638;-55
2023/10/29 08:26:02;;;;;;;18.90;13.48;;;;;;;12.30;100.00;99527.59;1829102;78;25552;-54
2023/10/29 08:28:29;;;;;;;20.68;14.38;;;;;;;12.45;100.00;99525.34;1812565;78;28067;-54
2023/10/29 08:30:56;;;;;;;21.02;12.80;;;;;;;12.83;100.00;99533.65;1828903;78;27328;-53
2023/10/29 08:33:23;;;;;;;21.07;12.58;;;;;;;13.29;100.00;99527.98;1812448;78;25772;-54
2023/10/29 08:35:50;;;;;;;17.52;11.57;;;;;;;13.81;100.00;99537.38;1829078;78;25636;-51
2023/10/29 08:38:16;;;;;;;18.73;11.48;;;;;;;14.20;100.00;99547.67;1829074;78;25392;-54
2023/10/29 08:40:42;;;;;;;15.45;10.82;;;;;;;14.55;100.00;99534.67;1827912;77;27519;-54
2023/10/29 08:43:08;;;;;;;16.00;10.63;;;;;;;14.83;100.00;99544.09;1825464;78;25375;-53
2023/10/29 08:45:35;;;;;;;15.08;10.90;;;;;;;15.25;100.00;99539.30;1825573;78;29593;-55
2023/10/29 08:48:01;;;;;;;15.90;10.25;;;;;;;15.75;100.00;99541.41;1825546;78;25606;-56
2023/10/29 08:50:30;;;;;;;15.28;10.55;;;;;;;16.44;100.00;99532.65;1825563;78;25535;-55
2023/10/29 08:52:56;;;;;;;17.07;10.63;;;;;;;17.03;100.00;99522.77;1825699;78;26947;-54
2023/10/29 08:55:25;;;;;;;11.03;8.33;;;;;;;17.74;100.00;99532.36;1825420;78;25385;-57
2023/10/29 08:57:51;;;;;;;14.90;8.95;;;;;;;18.00;92.42;99532.62;1804845;78;25642;-56
2023/10/29 09:00:18;;;;;;;17.23;8.53;;;;;;;18.11;87.21;99544.43;1825483;78;25534;-56
2023/10/29 09:02:44;;;;;;;12.13;8.25;;;;;;;18.11;85.42;99544.43;1825557;78;25412;-55
2023/10/29 09:05:11;;;;;;;12.10;8.10;;;;;;;18.24;85.93;99538.88;1825507;78;27516;-56
2023/10/29 09:07:38;;;;;;;14.03;8.30;;;;;;;18.67;87.05;99545.23;1825414;78;27328;-53
2023/10/29 09:10:07;;;;;;;10.90;7.28;;;;;;;19.02;84.17;99542.53;1825532;78;25466;-56
2023/10/29 09:12:33;;;;;;;13.22;7.75;;;;;;;18.97;82.12;99548.38;1825627;78;25463;-52
2023/10/29 09:14:59;;;;;;;12.58;7.60;;;;;;;19.07;82.03;99546.84;1825498;78;25676;-55
2023/10/29 09:17:25;;;;;;;11.80;7.67;;;;;;;19.13;80.67;99537.88;1824773;78;27489;-54
2023/10/29 09:19:51;;;;;;;13.45;7.78;;;;;;;19.35;78.69;99537.37;1824996;78;26135;-56
2023/10/29 09:22:18;;;;;;;12.58;7.33;;;;;;;19.39;77.28;99536.00;1825491;78;25410;-55
2023/10/29 09:24:45;;;;;;;12.03;7.75;;;;;;;19.72;79.29;99536.29;1824851;78;25641;-53
2023/10/29 09:27:11;;;;;;;11.48;7.50;;;;;;;19.95;74.79;99539.28;1824665;78;25521;-53
2023/10/29 09:29:40;;;;;;;11.03;6.90;;;;;;;19.94;72.33;99530.27;1825516;78;28090;-52
2023/10/29 09:32:07;;;;;;;13.15;7.08;;;;;;;19.93;74.12;99530.06;1825468;78;25510;-53
2023/10/29 09:34:36;;;;;;;14.80;7.53;;;;;;;19.81;72.51;99526.94;1805034;78;25576;-56
2023/10/29 09:37:04;;;;;;;9.18;6.28;;;;;;;19.57;73.01;99524.50;1804965;78;25550;-55
2023/10/29 09:39:31;;;;;;;11.88;7.05;;;;;;;19.61;72.88;99528.62;1804952;78;25418;-50
2023/10/29 09:42:08;;;;;;;8.38;6.45;;;;;;;19.60;73.46;99525.09;1829495;78;27501;-56
2023/10/29 09:44:34;;;;;;;10.25;6.62;;;;;;;19.56;71.65;99528.43;1830419;77;26148;-52
2023/10/29 09:47:14;;;;;;;8.90;6.92;;;;;;;19.34;70.02;99535.01;1831571;78;25504;-54
2023/10/29 09:49:42;;;;;;;12.00;7.05;;;;;;;18.92;69.83;99525.45;1829564;77;25700;-55
2023/10/29 09:52:09;;;;;;;9.53;6.05;;;;;;;18.57;68.66;99516.61;1831653;77;25539;-53
2023/10/29 09:54:39;;;;;;;11.38;6.25;;;;;;;18.16;70.10;99509.88;1831616;77;27338;-52
2023/10/29 09:57:06;;;;;;;14.43;6.53;;;;;;;17.99;71.29;99506.42;1831489;77;25620;-54
2023/10/29 09:59:34;;;;;;;9.08;5.87;;;;;;;17.71;70.79;99515.91;1831514;78;25524;-55
2023/10/29 10:02:01;;;;;;;9.68;6.12;;;;;;;17.47;71.35;99514.47;1823827;77;25509;-52
2023/10/29 10:04:28;;;;;;;16.55;7.60;;;;;;;17.31;72.23;99517.44;1798876;79;25380;-54
2023/10/29 10:06:58;;;;;;;13.22;6.53;;;;;;;17.22;72.48;99517.73;1798849;79;29570;-53
2023/10/29 10:09:25;;;;;;;9.65;6.33;;;;;;;17.49;72.84;99510.81;1798844;79;25364;-54
2023/10/29 10:12:04;;;;;;;14.58;6.22;;;;;;;17.87;74.62;99516.47;1783168;79;25408;-52
2023/10/29 10:14:31;;;;;;;13.30;6.55;;;;;;;18.37;73.80;99513.37;1798890;79;25605;-56
2023/10/29 10:17:10;;;;;;;12.75;6.37;;;;;;;19.06;73.92;99504.95;1798915;79;25533;-53
2023/10/29 10:19:39;;;;;;;10.10;6.65;;;;;;;19.59;73.48;99494.72;1798964;79;27462;-55
2023/10/29 10:22:08;;;;;;;13.60;5.50;;;;;;;19.93;69.64;99507.34;1798932;79;25541;-52
2023/10/29 10:24:47;;;;;;;9.15;5.05;;;;;;;20.17;68.48;99507.73;1799009;79;25533;-50
2023/10/29 10:27:13;;;;;;;8.03;5.90;;;;;;;20.15;67.19;99498.52;1799002;79;25630;-51
2023/10/29 10:29:39;;;;;;;12.28;5.95;;;;;;;20.23;69.75;99483.61;1798905;79;25622;-55
2023/10/29 10:32:08;;;;;;;10.78;6.37;;;;;;;20.90;67.84;99481.11;1798884;79;27355;-52
2023/10/29 10:34:37;;;;;;;11.12;5.95;;;;;;;21.10;68.15;99486.14;1798850;79;25588;-50
2023/10/29 10:37:04;;;;;;;8.80;5.22;;;;;;;21.32;66.25;99492.30;1783025;79;25395;-51
2023/10/29 10:39:34;;;;;;;14.43;6.10;;;;;;;21.27;65.65;99488.79;1799048;79;26287;-52
2023/10/29 10:42:03;;;;;;;;;;;;;;;21.32;64.40;99484.84;1801395;79;25483;-54
2023/10/29 10:44:32;;;;;;;10.88;4.97;;;;;;;21.59;65.96;99485.10;1755793;81;28277;-53
2023/10/29 10:47:00;;;;;;;6.95;5.28;;;;;;;21.73;63.54;99480.69;1755770;81;25569;-66
2023/10/29 10:49:31;;;;;;;8.38;5.25;;;;;;;21.63;61.66;99490.58;1729925;81;25666;-62
2023/10/29 10:51:58;;;;;;;9.40;5.58;;;;;;;21.21;60.70;99482.13;1755603;81;25590;-53
2023/10/29 10:54:29;;;;;;;8.55;5.05;;;;;;;21.09;61.82;99471.59;1755787;81;25522;-54
2023/10/29 10:56:59;;;;;;;8.80;5.90;;;;;;;21.25;62.10;99465.04;1755717;81;28008;-51
2023/10/29 10:59:25;;;;;;;10.85;4.87;;;;;;;21.32;62.97;99460.66;1755555;81;25429;-56
2023/10/29 11:01:52;;;;;;;38.53;31.93;;;;;;;21.79;64.63;99463.34;1755690;81;25397;-58
2023/10/29 11:04:21;;;;;;;8.80;7.08;;;;;;;21.90;60.77;99456.36;1755602;81;25550;-57
2023/10/29 11:06:49;;;;;;;8.55;5.53;;;;;;;21.85;61.80;99456.80;1730212;81;25412;-63
2023/10/29 11:09:19;;;;;;;8.93;5.15;;;;;;;21.93;59.63;99456.93;1755770;81;27528;-66
2023/10/29 11:11:56;;;;;;;6.62;4.40;;;;;;;21.80;59.42;99450.35;1755617;81;25404;-65
2023/10/29 11:14:25;;;;;;;7.17;4.53;;;;;;;21.83;60.26;99452.30;1755715;81;25439;-65
2023/10/29 11:16:55;;;;;;;6.58;4.50;;;;;;;21.83;58.54;99452.30;1755641;81;26148;-64
2023/10/29 11:19:47;;;;;;;8.25;4.45;;;;;;;21.68;60.34;99447.49;1755710;81;25609;-66